Weather at Edmonton/Morinville (Mike's Field)

Public forecast

Using degrees Celsius for public forecast. Weather courtesy of forecast.io.

Closest aviation weather report (METAR) to Edmonton/Morinville (Mike's Field)

Closest report is Edmonton (CFB Namao) Heliport, 10.6 nm (19.7 km) SSE. Retrieved 2021/01/28 06:28 UTC (8 minutes ago):

CYED 280628Z AUTO 06002KT 6SM OVC017 M19/M22 A2995

Closest aviation forecast (TAF) to Edmonton/Morinville (Mike's Field)

Closest forecast is Edmonton (CFB Namao) Heliport, 10.6 nm (19.7 km) SSE. Retrieved 2021/01/28 06:33 UTC (3 minutes ago):

TAF TAF CYED 280530Z 2806/2818 06006KT 1/2SM SN VV004 TEMPO 2806/2808 3SM -SN OVC010 FM280800 VRB03KT 3SM -SN OVC005 TEMPO 2808/2814 P6SM NSW OVC010 FM281400 VRB03KT P6SM BKN008 OVC020 TEMPO 2814/2816 SCT008 OVC020 FM281600 VRB03KT P6SM SCT010 BKN025 TEMPO 2816/2818 FEW008 BKN010 OVC025 RMK FCST BASED ON AUTO OBS NXT FCST BY 281200Z